createdAt,value
2022-08-23T00:00:56.500Z,1012.48
2022-08-23T00:01:56.473Z,1012.50
2022-08-23T00:02:56.559Z,1012.45
2022-08-23T00:04:18.097Z,1012.50
2022-08-23T00:05:09.414Z,1012.51
2022-08-23T00:05:56.408Z,1012.53
2022-08-23T00:06:56.972Z,1012.48
2022-08-23T00:07:56.479Z,1012.51
2022-08-23T00:08:56.384Z,1012.51
2022-08-23T00:10:17.413Z,1012.52
2022-08-23T00:10:56.336Z,1012.58
2022-08-23T00:11:56.361Z,1012.57
2022-08-23T00:12:56.301Z,1012.56
2022-08-23T00:13:56.289Z,1012.54
2022-08-23T00:14:56.285Z,1012.56
2022-08-23T00:16:17.265Z,1012.54
2022-08-23T00:16:56.256Z,1012.54
2022-08-23T00:17:56.231Z,1012.54
2022-08-23T00:18:56.213Z,1012.54
2022-08-23T00:19:56.185Z,1012.50
2022-08-23T00:20:56.209Z,1012.51
2022-08-23T00:22:17.189Z,1012.45
2022-08-23T00:22:56.183Z,1012.52
2022-08-23T00:23:56.163Z,1012.50
2022-08-23T00:24:57.018Z,1012.56
2022-08-23T00:25:56.156Z,1012.54
2022-08-23T00:26:56.085Z,1012.57
2022-08-23T00:28:17.087Z,1012.56
2022-08-23T00:28:56.977Z,1012.62
2022-08-23T00:29:56.102Z,1012.56
2022-08-23T00:30:56.024Z,1012.57
2022-08-23T00:31:56.062Z,1012.60
2022-08-23T00:32:57.979Z,1012.57
2022-08-23T00:34:16.999Z,1012.59
2022-08-23T00:34:55.975Z,1012.60
2022-08-23T00:35:55.940Z,1012.60
2022-08-23T00:36:56.008Z,1012.57
2022-08-23T00:38:10.583Z,1012.59
2022-08-23T00:38:55.915Z,1012.63
2022-08-23T00:40:16.929Z,1012.61
2022-08-23T00:40:55.869Z,1012.60
2022-08-23T00:41:55.857Z,1012.63
2022-08-23T00:42:55.836Z,1012.65
2022-08-23T00:43:55.859Z,1012.65
2022-08-23T00:44:55.803Z,1012.68
2022-08-23T00:46:16.805Z,1012.69
2022-08-23T00:46:55.775Z,1012.73
2022-08-23T00:47:56.545Z,1012.76
2022-08-23T00:48:55.738Z,1012.76
2022-08-23T00:49:55.730Z,1012.74
2022-08-23T00:50:55.712Z,1012.73
2022-08-23T00:52:16.722Z,1012.72
2022-08-23T00:52:55.675Z,1012.71
2022-08-23T00:53:55.660Z,1012.74
2022-08-23T00:54:55.669Z,1012.76
2022-08-23T00:55:55.658Z,1012.71
2022-08-23T00:56:55.628Z,1012.71
2022-08-23T00:58:16.629Z,1012.75
2022-08-23T00:58:55.589Z,1012.74
2022-08-23T00:59:55.594Z,1012.76
2022-08-23T01:00:55.551Z,1012.74
2022-08-23T01:01:55.609Z,1012.77
2022-08-23T01:02:55.518Z,1012.76
2022-08-23T01:04:16.514Z,1012.81
2022-08-23T01:04:55.503Z,1012.81
2022-08-23T01:05:55.503Z,1012.78
2022-08-23T01:06:55.484Z,1012.78
2022-08-23T01:07:55.547Z,1012.79
2022-08-23T01:08:55.523Z,1012.72
2022-08-23T01:10:19.236Z,1012.73
2022-08-23T01:10:56.006Z,1012.76
2022-08-23T01:11:55.418Z,1012.82
2022-08-23T01:12:55.376Z,1012.78
2022-08-23T01:13:55.358Z,1012.80
2022-08-23T01:14:55.336Z,1012.81
2022-08-23T01:16:17.002Z,1012.81
2022-08-23T01:16:55.300Z,1012.82
2022-08-23T01:17:55.352Z,1012.83
2022-08-23T01:18:55.304Z,1012.83
2022-08-23T01:19:55.267Z,1012.82
2022-08-23T01:20:55.278Z,1012.83
2022-08-23T01:22:16.228Z,1012.85
2022-08-23T01:22:55.239Z,1012.84
2022-08-23T01:23:55.193Z,1012.85
2022-08-23T01:25:07.762Z,1012.82
2022-08-23T01:25:55.165Z,1012.83
2022-08-23T01:26:55.186Z,1012.80
2022-08-23T01:28:16.152Z,1012.82
2022-08-23T01:28:55.141Z,1012.82
2022-08-23T01:29:55.105Z,1012.85
2022-08-23T01:30:55.085Z,1012.83
2022-08-23T01:31:55.100Z,1012.86
2022-08-23T01:32:55.053Z,1012.86
2022-08-23T01:34:16.048Z,1012.87
2022-08-23T01:34:55.022Z,1012.86
2022-08-23T01:35:55.020Z,1012.84
2022-08-23T01:36:55.004Z,1012.83
2022-08-23T01:37:55.007Z,1012.83
2022-08-23T01:38:54.958Z,1012.83
2022-08-23T01:40:16.006Z,1012.84
2022-08-23T01:40:55.029Z,1012.83
2022-08-23T01:41:54.939Z,1012.81
2022-08-23T01:42:55.538Z,1012.86
2022-08-23T01:43:54.893Z,1012.83
2022-08-23T01:44:54.879Z,1012.88
2022-08-23T01:46:15.894Z,1012.85
2022-08-23T01:46:57.964Z,1012.85
2022-08-23T01:47:54.875Z,1012.86
2022-08-23T01:48:54.808Z,1012.88
2022-08-23T01:49:54.813Z,1012.92
2022-08-23T01:50:54.821Z,1012.91
2022-08-23T01:52:15.786Z,1012.88
2022-08-23T01:52:54.754Z,1012.90
2022-08-23T01:53:54.733Z,1012.93
2022-08-23T01:54:54.723Z,1012.91
2022-08-23T01:55:54.704Z,1012.92
2022-08-23T01:56:55.523Z,1012.88
2022-08-23T01:58:15.673Z,1012.92
2022-08-23T01:58:55.535Z,1012.90
2022-08-23T01:59:54.647Z,1012.90
2022-08-23T02:00:54.632Z,1012.87
2022-08-23T02:01:54.709Z,1012.91
2022-08-23T02:02:54.594Z,1012.91
2022-08-23T02:04:15.587Z,1012.90
2022-08-23T02:04:54.578Z,1012.93
2022-08-23T02:05:55.533Z,1012.89
2022-08-23T02:06:54.540Z,1012.94
2022-08-23T02:07:54.526Z,1012.93
2022-08-23T02:08:54.501Z,1012.98
2022-08-23T02:10:15.516Z,1013.00
2022-08-23T02:10:54.495Z,1013.00
2022-08-23T02:11:54.455Z,1013.05
2022-08-23T02:12:54.461Z,1013.07
2022-08-23T02:13:54.454Z,1013.07
2022-08-23T02:14:54.418Z,1013.07
2022-08-23T02:16:16.027Z,1013.11
2022-08-23T02:17:04.292Z,1013.12
2022-08-23T02:17:54.382Z,1013.14
2022-08-23T02:18:54.369Z,1013.07
2022-08-23T02:19:55.060Z,1013.11
2022-08-23T02:20:54.341Z,1013.09
2022-08-23T02:22:15.318Z,1013.15
2022-08-23T02:22:54.346Z,1013.14
2022-08-23T02:23:54.281Z,1013.14
2022-08-23T02:24:54.299Z,1013.17
2022-08-23T02:25:54.241Z,1013.10
2022-08-23T02:26:56.626Z,1013.13
2022-08-23T02:28:15.212Z,1013.14
2022-08-23T02:28:56.399Z,1013.11
2022-08-23T02:29:54.182Z,1013.10
2022-08-23T02:30:54.167Z,1013.06
2022-08-23T02:31:54.181Z,1013.11
2022-08-23T02:32:54.166Z,1013.08
2022-08-23T02:34:15.157Z,1013.12
2022-08-23T02:35:05.105Z,1013.09
2022-08-23T02:35:54.117Z,1013.12
2022-08-23T02:36:54.079Z,1013.13
2022-08-23T02:37:54.063Z,1013.14
2022-08-23T02:38:54.085Z,1013.20
2022-08-23T02:40:15.090Z,1013.18
2022-08-23T02:41:00.633Z,1013.16
2022-08-23T02:41:54.022Z,1013.12
2022-08-23T02:42:53.993Z,1013.13
2022-08-23T02:43:53.967Z,1013.15
2022-08-23T02:44:53.957Z,1013.16
2022-08-23T02:46:14.980Z,1013.15
2022-08-23T02:46:53.945Z,1013.11
2022-08-23T02:47:53.927Z,1013.10
2022-08-23T02:48:53.893Z,1013.16
2022-08-23T02:49:53.886Z,1013.13
2022-08-23T02:50:53.865Z,1013.14
2022-08-23T02:52:14.873Z,1013.15
2022-08-23T02:52:53.881Z,1013.13
2022-08-23T02:53:53.824Z,1013.13
2022-08-23T02:54:53.809Z,1013.13
2022-08-23T02:55:53.817Z,1013.12
2022-08-23T02:56:54.547Z,1013.14
2022-08-23T02:58:14.777Z,1013.10
2022-08-23T02:58:54.430Z,1013.15
2022-08-23T02:59:53.728Z,1013.16
2022-08-23T03:00:53.709Z,1013.11
2022-08-23T03:01:53.736Z,1013.14
2022-08-23T03:02:53.672Z,1013.18
2022-08-23T03:04:14.683Z,1013.17
2022-08-23T03:04:53.667Z,1013.20
2022-08-23T03:05:53.638Z,1013.22
2022-08-23T03:06:53.615Z,1013.18
2022-08-23T03:07:53.611Z,1013.21
2022-08-23T03:08:53.607Z,1013.25
2022-08-23T03:10:14.577Z,1013.21
2022-08-23T03:10:54.050Z,1013.23
2022-08-23T03:11:53.547Z,1013.23
2022-08-23T03:12:53.533Z,1013.22
2022-08-23T03:13:53.550Z,1013.23
2022-08-23T03:14:53.498Z,1013.28
2022-08-23T03:16:15.056Z,1013.25
2022-08-23T03:16:53.458Z,1013.27
2022-08-23T03:17:53.455Z,1013.32
2022-08-23T03:18:53.442Z,1013.25
2022-08-23T03:19:54.076Z,1013.30
2022-08-23T03:20:53.406Z,1013.30
2022-08-23T03:22:14.408Z,1013.30
2022-08-23T03:22:53.365Z,1013.26
2022-08-23T03:23:53.374Z,1013.26
2022-08-23T03:24:53.379Z,1013.25
2022-08-23T03:25:53.338Z,1013.26
2022-08-23T03:26:53.327Z,1013.28
2022-08-23T03:28:14.305Z,1013.29
2022-08-23T03:28:53.282Z,1013.27
2022-08-23T03:29:53.284Z,1013.28
2022-08-23T03:30:53.253Z,1013.24
2022-08-23T03:31:53.851Z,1013.24
2022-08-23T03:32:53.242Z,1013.25
2022-08-23T03:34:14.207Z,1013.24
2022-08-23T03:34:53.243Z,1013.25
2022-08-23T03:35:53.179Z,1013.25
2022-08-23T03:36:53.167Z,1013.25
2022-08-23T03:37:55.244Z,1013.27
2022-08-23T03:38:53.146Z,1013.25
2022-08-23T03:40:14.189Z,1013.29
2022-08-23T03:40:53.095Z,1013.25
2022-08-23T03:41:53.113Z,1013.25
2022-08-23T03:42:53.074Z,1013.26
2022-08-23T03:43:53.051Z,1013.27
2022-08-23T03:44:57.065Z,1013.26
2022-08-23T03:46:14.039Z,1013.27
2022-08-23T03:46:53.030Z,1013.28
2022-08-23T03:47:53.036Z,1013.28
2022-08-23T03:48:52.989Z,1013.27
2022-08-23T03:49:52.974Z,1013.29
2022-08-23T03:50:54.649Z,1013.31
2022-08-23T03:52:14.044Z,1013.29
2022-08-23T03:52:52.904Z,1013.32
2022-08-23T03:53:52.896Z,1013.30
2022-08-23T03:54:52.945Z,1013.33
2022-08-23T03:55:52.885Z,1013.36
2022-08-23T03:56:52.860Z,1013.42
2022-08-23T03:58:13.886Z,1013.39
2022-08-23T03:58:52.823Z,1013.42
2022-08-23T03:59:52.890Z,1013.41
2022-08-23T04:00:52.803Z,1013.43
2022-08-23T04:01:52.920Z,1013.45
2022-08-23T04:02:52.754Z,1013.46
2022-08-23T04:04:13.747Z,1013.47
2022-08-23T04:04:52.733Z,1013.52
2022-08-23T04:05:53.590Z,1013.57
2022-08-23T04:06:52.697Z,1013.57
2022-08-23T04:07:52.688Z,1013.58
2022-08-23T04:08:52.673Z,1013.58
2022-08-23T04:10:13.672Z,1013.57
2022-08-23T04:10:52.651Z,1013.60
2022-08-23T04:11:52.678Z,1013.60
2022-08-23T04:12:52.632Z,1013.63
2022-08-23T04:13:52.602Z,1013.61
2022-08-23T04:14:52.616Z,1013.62
2022-08-23T04:16:13.577Z,1013.67
2022-08-23T04:16:52.537Z,1013.61
2022-08-23T04:17:52.561Z,1013.62
2022-08-23T04:18:52.517Z,1013.63
2022-08-23T04:19:53.086Z,1013.63
2022-08-23T04:20:52.484Z,1013.67
2022-08-23T04:22:13.466Z,1013.63
2022-08-23T04:22:52.540Z,1013.60
2022-08-23T04:23:52.461Z,1013.66
2022-08-23T04:24:52.463Z,1013.64
2022-08-23T04:25:52.433Z,1013.67
2022-08-23T04:26:52.406Z,1013.64
2022-08-23T04:28:13.386Z,1013.66
2022-08-23T04:28:52.985Z,1013.67
2022-08-23T04:29:52.340Z,1013.64
2022-08-23T04:30:52.326Z,1013.66
2022-08-23T04:31:52.382Z,1013.61
2022-08-23T04:32:52.313Z,1013.67
2022-08-23T04:34:13.286Z,1013.67
2022-08-23T04:34:52.323Z,1013.64
2022-08-23T04:35:52.259Z,1013.66
2022-08-23T04:36:55.293Z,1013.68
2022-08-23T04:37:52.245Z,1013.74
2022-08-23T04:38:52.246Z,1013.74
2022-08-23T04:40:13.243Z,1013.72
2022-08-23T04:40:52.193Z,1013.77
2022-08-23T04:41:52.167Z,1013.74
2022-08-23T04:42:52.177Z,1013.74
2022-08-23T04:43:52.132Z,1013.73
2022-08-23T04:44:52.129Z,1013.70
2022-08-23T04:46:13.117Z,1013.72
2022-08-23T04:46:52.098Z,1013.73
2022-08-23T04:47:52.115Z,1013.72
2022-08-23T04:48:52.059Z,1013.73
2022-08-23T04:49:52.051Z,1013.75
2022-08-23T04:50:52.025Z,1013.76
2022-08-23T04:52:16.168Z,1013.79
2022-08-23T04:52:52.039Z,1013.76
2022-08-23T04:53:51.973Z,1013.77
2022-08-23T04:54:52.004Z,1013.76
2022-08-23T04:55:51.959Z,1013.78
2022-08-23T04:56:52.074Z,1013.82
2022-08-23T04:58:12.975Z,1013.77
2022-08-23T04:58:51.926Z,1013.80
2022-08-23T04:59:51.964Z,1013.83
2022-08-23T05:00:51.971Z,1013.82
2022-08-23T05:01:54.663Z,1013.84
2022-08-23T05:02:51.916Z,1013.80
2022-08-23T05:04:12.954Z,1013.85
2022-08-23T05:04:51.824Z,1013.82
2022-08-23T05:05:51.836Z,1013.82
2022-08-23T05:06:51.873Z,1013.85
2022-08-23T05:07:51.831Z,1013.80
2022-08-23T05:08:52.665Z,1013.83
2022-08-23T05:10:13.016Z,1013.86
2022-08-23T05:10:51.799Z,1013.84
2022-08-23T05:11:51.750Z,1013.90
2022-08-23T05:12:51.756Z,1013.86
2022-08-23T05:13:51.717Z,1013.88
2022-08-23T05:14:51.718Z,1013.88
2022-08-23T05:16:12.681Z,1013.90
2022-08-23T05:16:51.634Z,1013.90
2022-08-23T05:17:51.639Z,1013.86
2022-08-23T05:18:51.606Z,1013.85
2022-08-23T05:19:51.610Z,1013.85
2022-08-23T05:20:51.618Z,1013.88
2022-08-23T05:22:12.557Z,1013.86
2022-08-23T05:22:51.571Z,1013.88
2022-08-23T05:23:54.708Z,1013.88
2022-08-23T05:24:51.555Z,1013.88
2022-08-23T05:25:53.246Z,1013.86
2022-08-23T05:26:51.548Z,1013.87
2022-08-23T05:28:12.494Z,1013.88
2022-08-23T05:28:51.477Z,1013.81
2022-08-23T05:29:51.464Z,1013.84
2022-08-23T05:30:56.516Z,1013.81
2022-08-23T05:31:51.430Z,1013.84
2022-08-23T05:32:51.440Z,1013.82
2022-08-23T05:34:12.399Z,1013.84
2022-08-23T05:34:51.399Z,1013.86
2022-08-23T05:35:51.402Z,1013.84
2022-08-23T05:36:55.803Z,1013.87
2022-08-23T05:37:51.355Z,1013.88
2022-08-23T05:38:51.326Z,1013.88
2022-08-23T05:40:12.376Z,1013.92
2022-08-23T05:40:54.881Z,1013.92
2022-08-23T05:41:51.344Z,1013.97
2022-08-23T05:42:51.356Z,1013.98
2022-08-23T05:43:51.259Z,1013.97
2022-08-23T05:44:52.129Z,1013.95
2022-08-23T05:46:13.001Z,1013.97
2022-08-23T05:46:51.315Z,1013.91
2022-08-23T05:47:51.195Z,1013.98
2022-08-23T05:48:51.234Z,1013.99
2022-08-23T05:49:51.203Z,1013.98
2022-08-23T05:50:51.210Z,1013.98
2022-08-23T05:52:12.201Z,1014.02
2022-08-23T05:52:51.365Z,1014.05
2022-08-23T05:53:51.669Z,1014.03
2022-08-23T05:54:51.144Z,1014.00
2022-08-23T05:55:51.083Z,1014.03
2022-08-23T05:56:51.142Z,1014.03
2022-08-23T05:58:12.135Z,1014.04
2022-08-23T05:58:51.074Z,1014.05
2022-08-23T05:59:51.013Z,1014.05
2022-08-23T06:00:51.044Z,1014.06
2022-08-23T06:01:51.645Z,1014.09
2022-08-23T06:02:50.984Z,1014.07
2022-08-23T06:04:12.067Z,1014.08
2022-08-23T06:04:54.397Z,1014.09
2022-08-23T06:05:50.971Z,1014.06
2022-08-23T06:06:50.951Z,1014.09
2022-08-23T06:07:50.925Z,1014.05
2022-08-23T06:08:51.651Z,1014.10
2022-08-23T06:10:16.079Z,1014.12
2022-08-23T06:10:50.872Z,1014.11
2022-08-23T06:11:50.870Z,1014.07
2022-08-23T06:12:50.893Z,1014.06
2022-08-23T06:13:50.919Z,1014.12
2022-08-23T06:14:50.849Z,1014.11
2022-08-23T06:16:14.805Z,1014.12
2022-08-23T06:16:54.861Z,1014.15
2022-08-23T06:17:50.914Z,1014.11
2022-08-23T06:18:51.699Z,1014.13
2022-08-23T06:19:50.812Z,1014.14
2022-08-23T06:20:50.839Z,1014.12
2022-08-23T06:22:11.792Z,1014.10
2022-08-23T06:22:50.748Z,1014.10
2022-08-23T06:23:51.677Z,1014.06
2022-08-23T06:24:50.696Z,1014.09
2022-08-23T06:25:50.669Z,1014.11
2022-08-23T06:26:50.703Z,1014.14
2022-08-23T06:28:11.632Z,1014.12
2022-08-23T06:28:51.331Z,1014.12
2022-08-23T06:29:50.615Z,1014.15
2022-08-23T06:30:50.685Z,1014.18
2022-08-23T06:31:50.580Z,1014.19
2022-08-23T06:32:50.664Z,1014.17
2022-08-23T06:34:11.668Z,1014.19
2022-08-23T06:34:50.576Z,1014.21
2022-08-23T06:35:50.562Z,1014.19
2022-08-23T06:36:50.539Z,1014.18
2022-08-23T06:37:50.602Z,1014.19
2022-08-23T06:38:51.200Z,1014.21
2022-08-23T06:40:11.597Z,1014.22
2022-08-23T06:40:50.497Z,1014.21
2022-08-23T06:41:51.061Z,1014.28
2022-08-23T06:42:50.484Z,1014.27
2022-08-23T06:43:51.181Z,1014.27
2022-08-23T06:44:50.443Z,1014.26
2022-08-23T06:46:11.637Z,1014.31
2022-08-23T06:46:50.452Z,1014.30
2022-08-23T06:47:50.375Z,1014.29
2022-08-23T06:48:50.386Z,1014.28
2022-08-23T06:49:57.511Z,1014.26
2022-08-23T06:50:50.382Z,1014.28
2022-08-23T06:52:11.393Z,1014.27
2022-08-23T06:52:50.296Z,1014.24
2022-08-23T06:53:50.311Z,1014.25
2022-08-23T06:54:50.311Z,1014.26
2022-08-23T06:55:50.260Z,1014.23
2022-08-23T06:56:50.264Z,1014.26
2022-08-23T06:58:12.544Z,1014.25
2022-08-23T06:58:50.249Z,1014.24
2022-08-23T06:59:50.347Z,1014.24
2022-08-23T07:00:54.177Z,1014.25
2022-08-23T07:01:50.498Z,1014.29
2022-08-23T07:02:50.525Z,1014.29
2022-08-23T07:04:11.498Z,1014.31
2022-08-23T07:04:51.107Z,1014.28
2022-08-23T07:05:50.534Z,1014.33
2022-08-23T07:06:50.617Z,1014.34
2022-08-23T07:07:50.597Z,1014.39
2022-08-23T07:08:50.502Z,1014.41
2022-08-23T07:10:11.433Z,1014.44
2022-08-23T07:10:51.336Z,1014.47
2022-08-23T07:11:50.287Z,1014.43
2022-08-23T07:12:50.367Z,1014.44
2022-08-23T07:13:50.434Z,1014.40
2022-08-23T07:14:50.395Z,1014.42
2022-08-23T07:16:11.810Z,1014.42
2022-08-23T07:16:50.188Z,1014.42
2022-08-23T07:17:50.212Z,1014.47
2022-08-23T07:18:50.256Z,1014.48
2022-08-23T07:19:50.397Z,1014.46
2022-08-23T07:20:50.484Z,1014.51
2022-08-23T07:22:11.521Z,1014.46
2022-08-23T07:22:50.357Z,1014.47
2022-08-23T07:23:50.321Z,1014.46
2022-08-23T07:24:50.292Z,1014.47
2022-08-23T07:25:52.109Z,1014.46
2022-08-23T07:26:50.342Z,1014.46
2022-08-23T07:28:11.861Z,1014.44
2022-08-23T07:28:50.206Z,1014.48
2022-08-23T07:29:50.226Z,1014.44
2022-08-23T07:30:50.347Z,1014.44
2022-08-23T07:31:50.297Z,1014.47
2022-08-23T07:32:50.294Z,1014.49
2022-08-23T07:34:11.100Z,1014.49
2022-08-23T07:34:50.054Z,1014.49
2022-08-23T07:35:50.266Z,1014.51
2022-08-23T07:36:50.090Z,1014.51
2022-08-23T07:37:49.913Z,1014.54
2022-08-23T07:38:51.638Z,1014.54
2022-08-23T07:40:10.933Z,1014.54
2022-08-23T07:40:54.057Z,1014.52
2022-08-23T07:41:49.765Z,1014.57
2022-08-23T07:42:49.800Z,1014.51
2022-08-23T07:43:49.715Z,1014.56
2022-08-23T07:46:12.586Z,1014.59
2022-08-23T07:46:49.733Z,1014.63
2022-08-23T07:47:50.625Z,1014.61
2022-08-23T07:48:55.603Z,1014.57
2022-08-23T07:49:49.659Z,1014.58
2022-08-23T07:52:21.749Z,1014.57
2022-08-23T07:53:27.540Z,1014.62
2022-08-23T07:54:21.679Z,1014.64
2022-08-23T07:55:21.756Z,1014.67
2022-08-23T07:56:21.748Z,1014.61
2022-08-23T07:57:21.612Z,1014.62
2022-08-23T07:58:21.761Z,1014.63
2022-08-23T07:59:21.588Z,1014.63
2022-08-23T08:00:21.603Z,1014.62
2022-08-23T08:01:21.633Z,1014.59
2022-08-23T08:02:21.592Z,1014.58
2022-08-23T08:03:21.545Z,1014.57
2022-08-23T08:04:21.537Z,1014.53
2022-08-23T08:05:22.044Z,1014.56
2022-08-23T08:06:21.541Z,1014.57
2022-08-23T08:07:21.680Z,1014.57
2022-08-23T08:08:21.526Z,1014.57
2022-08-23T08:09:21.483Z,1014.56
2022-08-23T08:10:21.481Z,1014.57
2022-08-23T08:11:21.460Z,1014.56
2022-08-23T08:12:21.471Z,1014.53
2022-08-23T08:13:21.453Z,1014.53
2022-08-23T08:14:21.432Z,1014.55
2022-08-23T08:15:21.424Z,1014.56
2022-08-23T08:16:21.444Z,1014.54
2022-08-23T08:17:26.823Z,1014.50
2022-08-23T08:18:21.432Z,1014.51
2022-08-23T08:19:21.412Z,1014.55
2022-08-23T08:20:21.402Z,1014.55
2022-08-23T08:21:21.362Z,1014.59
2022-08-23T08:22:21.355Z,1014.60
2022-08-23T08:23:21.342Z,1014.59
2022-08-23T08:24:21.337Z,1014.60
2022-08-23T08:25:21.320Z,1014.60
2022-08-23T08:26:21.358Z,1014.64
2022-08-23T08:27:21.651Z,1014.63
2022-08-23T08:28:21.274Z,1014.59
2022-08-23T08:29:21.273Z,1014.56
2022-08-23T08:30:21.376Z,1014.56
2022-08-23T08:31:21.342Z,1014.57
2022-08-23T08:32:21.237Z,1014.58
2022-08-23T08:33:21.294Z,1014.57
2022-08-23T08:34:21.211Z,1014.60
2022-08-23T08:35:21.211Z,1014.60
2022-08-23T08:36:21.214Z,1014.58
2022-08-23T08:37:21.257Z,1014.60
2022-08-23T08:38:21.169Z,1014.62
2022-08-23T08:39:21.162Z,1014.59
2022-08-23T08:40:21.239Z,1014.61
2022-08-23T08:41:21.155Z,1014.57
2022-08-23T08:42:21.145Z,1014.63
2022-08-23T08:43:21.162Z,1014.61
2022-08-23T08:44:21.312Z,1014.58
2022-08-23T08:45:21.102Z,1014.62
2022-08-23T08:46:21.208Z,1014.63
2022-08-23T08:47:21.092Z,1014.61
2022-08-23T08:48:21.091Z,1014.60
2022-08-23T08:49:21.075Z,1014.65
2022-08-23T08:50:21.042Z,1014.62
2022-08-23T08:51:21.034Z,1014.57
2022-08-23T08:52:21.025Z,1014.61
2022-08-23T08:53:21.028Z,1014.55
2022-08-23T08:54:21.023Z,1014.57
2022-08-23T08:55:20.998Z,1014.57
2022-08-23T08:56:20.982Z,1014.57
2022-08-23T08:57:25.221Z,1014.56
2022-08-23T08:58:20.959Z,1014.54
2022-08-23T08:59:20.964Z,1014.55
2022-08-23T09:00:20.975Z,1014.55
2022-08-23T09:01:21.097Z,1014.55
2022-08-23T09:02:32.068Z,1014.57
2022-08-23T09:03:20.981Z,1014.53
2022-08-23T09:04:20.904Z,1014.52
2022-08-23T09:05:20.902Z,1014.55
2022-08-23T09:06:20.888Z,1014.51
2022-08-23T09:07:20.913Z,1014.56
2022-08-23T09:08:20.868Z,1014.55
2022-08-23T09:09:20.860Z,1014.53
2022-08-23T09:10:20.836Z,1014.54
2022-08-23T09:11:20.852Z,1014.47
2022-08-23T09:12:20.848Z,1014.49
2022-08-23T09:13:20.840Z,1014.51
2022-08-23T09:14:20.798Z,1014.52
2022-08-23T09:15:20.786Z,1014.52
2022-08-23T09:16:20.811Z,1014.51
2022-08-23T09:17:20.914Z,1014.52
2022-08-23T09:18:20.773Z,1014.52
2022-08-23T09:19:20.783Z,1014.47
2022-08-23T09:20:20.791Z,1014.46
2022-08-23T09:21:20.734Z,1014.45
2022-08-23T09:22:20.717Z,1014.44
2022-08-23T09:23:20.703Z,1014.42
2022-08-23T09:24:20.702Z,1014.44
2022-08-23T09:25:20.679Z,1014.41
2022-08-23T09:26:20.682Z,1014.40
2022-08-23T09:27:20.662Z,1014.40
2022-08-23T09:28:20.684Z,1014.36
2022-08-23T09:29:20.670Z,1014.38
2022-08-23T09:30:20.652Z,1014.37
2022-08-23T09:31:20.709Z,1014.41
2022-08-23T09:32:20.630Z,1014.41
2022-08-23T09:33:20.595Z,1014.42
2022-08-23T09:34:20.596Z,1014.43
2022-08-23T09:35:20.603Z,1014.47
2022-08-23T09:36:20.604Z,1014.45
2022-08-23T09:37:20.592Z,1014.45
2022-08-23T09:38:20.632Z,1014.48
2022-08-23T09:39:20.533Z,1014.47
2022-08-23T09:40:20.556Z,1014.46
2022-08-23T09:41:20.533Z,1014.51
2022-08-23T09:42:20.508Z,1014.53
2022-08-23T09:43:20.495Z,1014.47
2022-08-23T09:44:20.492Z,1014.47
2022-08-23T09:45:20.471Z,1014.51
2022-08-23T09:46:20.487Z,1014.50
2022-08-23T09:47:20.476Z,1014.51
2022-08-23T09:48:20.461Z,1014.50
2022-08-23T09:49:20.478Z,1014.54
2022-08-23T09:50:20.464Z,1014.49
2022-08-23T09:51:20.429Z,1014.55
2022-08-23T09:52:22.333Z,1014.54
2022-08-23T09:53:20.408Z,1014.54
2022-08-23T09:54:20.420Z,1014.54
2022-08-23T09:55:20.371Z,1014.51
2022-08-23T09:56:20.378Z,1014.54
2022-08-23T09:57:20.380Z,1014.53
2022-08-23T09:58:20.355Z,1014.53
2022-08-23T09:59:20.359Z,1014.54
2022-08-23T10:00:20.334Z,1014.53
2022-08-23T10:01:20.375Z,1014.56
2022-08-23T10:02:20.305Z,1014.54
2022-08-23T10:03:20.360Z,1014.58
2022-08-23T10:04:20.343Z,1014.57
2022-08-23T10:05:20.277Z,1014.57
2022-08-23T10:06:20.302Z,1014.54
2022-08-23T10:07:20.249Z,1014.55
2022-08-23T10:08:20.249Z,1014.52
2022-08-23T10:09:20.227Z,1014.56
2022-08-23T10:10:20.227Z,1014.56
2022-08-23T10:11:20.230Z,1014.53
2022-08-23T10:12:20.218Z,1014.60
2022-08-23T10:13:20.838Z,1014.58
2022-08-23T10:14:20.179Z,1014.57
2022-08-23T10:15:20.204Z,1014.56
2022-08-23T10:16:20.262Z,1014.53
2022-08-23T10:17:20.184Z,1014.56
2022-08-23T10:18:20.174Z,1014.57
2022-08-23T10:19:20.168Z,1014.60
2022-08-23T10:20:20.164Z,1014.61
2022-08-23T10:21:23.786Z,1014.61
2022-08-23T10:22:20.841Z,1014.57
2022-08-23T10:23:20.120Z,1014.59
2022-08-23T10:24:21.005Z,1014.56
2022-08-23T10:25:20.250Z,1014.58
2022-08-23T10:26:20.270Z,1014.57
2022-08-23T10:27:20.241Z,1014.57
2022-08-23T10:28:20.192Z,1014.58
2022-08-23T10:29:20.261Z,1014.63
2022-08-23T10:30:20.165Z,1014.61
2022-08-23T10:31:20.276Z,1014.60
2022-08-23T10:32:20.207Z,1014.58
2022-08-23T10:33:20.180Z,1014.57
2022-08-23T10:34:20.185Z,1014.60
2022-08-23T10:35:20.174Z,1014.55
2022-08-23T10:36:20.114Z,1014.54
2022-08-23T10:37:20.118Z,1014.51
2022-08-23T10:38:20.048Z,1014.49
2022-08-23T10:39:20.132Z,1014.46
2022-08-23T10:40:20.174Z,1014.45
2022-08-23T10:41:20.138Z,1014.41
2022-08-23T10:42:20.060Z,1014.36
2022-08-23T10:43:19.984Z,1014.34
2022-08-23T10:44:19.968Z,1014.26
2022-08-23T10:45:19.876Z,1014.24
2022-08-23T10:46:19.952Z,1014.20
2022-08-23T10:47:19.869Z,1014.20
2022-08-23T10:48:21.270Z,1014.17
2022-08-23T10:49:19.877Z,1014.19
2022-08-23T10:50:19.805Z,1014.20
2022-08-23T10:51:23.161Z,1014.24
2022-08-23T10:52:19.805Z,1014.23
2022-08-23T10:53:19.783Z,1014.27
2022-08-23T10:54:19.761Z,1014.30
2022-08-23T10:55:19.754Z,1014.32
2022-08-23T10:56:19.737Z,1014.32
2022-08-23T10:57:19.757Z,1014.34
2022-08-23T10:58:19.737Z,1014.32
2022-08-23T10:59:19.738Z,1014.33
2022-08-23T11:00:19.738Z,1014.28
2022-08-23T11:01:19.797Z,1014.29
2022-08-23T11:02:19.748Z,1014.29
2022-08-23T11:03:19.678Z,1014.29
2022-08-23T11:04:19.692Z,1014.27
2022-08-23T11:05:19.683Z,1014.23
2022-08-23T11:06:19.633Z,1014.20
2022-08-23T11:07:19.640Z,1014.16
2022-08-23T11:08:19.614Z,1014.18
2022-08-23T11:09:19.603Z,1014.13
2022-08-23T11:10:19.616Z,1014.11
2022-08-23T11:11:19.625Z,1014.07
2022-08-23T11:12:19.604Z,1014.07
2022-08-23T11:13:19.606Z,1014.00
2022-08-23T11:14:19.547Z,1014.01
2022-08-23T11:15:19.545Z,1013.96
2022-08-23T11:16:19.595Z,1013.98
2022-08-23T11:17:19.558Z,1013.98
2022-08-23T11:18:19.511Z,1013.96
2022-08-23T11:19:19.503Z,1014.00
2022-08-23T11:20:19.483Z,1013.98
2022-08-23T11:21:19.492Z,1013.95
2022-08-23T11:22:19.490Z,1013.94
2022-08-23T11:23:19.485Z,1013.89
2022-08-23T11:24:19.447Z,1013.88
2022-08-23T11:25:19.437Z,1013.86
2022-08-23T11:26:19.430Z,1013.88
2022-08-23T11:27:19.423Z,1013.91
2022-08-23T11:28:19.429Z,1013.91
2022-08-23T11:29:19.401Z,1013.84
2022-08-23T11:30:19.432Z,1013.90
2022-08-23T11:31:19.386Z,1013.85
2022-08-23T11:32:19.361Z,1013.87
2022-08-23T11:33:19.368Z,1013.89
2022-08-23T11:34:19.348Z,1013.88
2022-08-23T11:35:19.362Z,1013.81
2022-08-23T11:36:19.321Z,1013.83
2022-08-23T11:37:19.323Z,1013.83
2022-08-23T11:38:22.613Z,1013.85
2022-08-23T11:39:24.579Z,1013.84
2022-08-23T11:40:19.407Z,1013.85
2022-08-23T11:41:19.284Z,1013.89
2022-08-23T11:42:19.299Z,1013.88
2022-08-23T11:43:19.245Z,1013.88
2022-08-23T11:44:19.229Z,1013.90
2022-08-23T11:45:19.245Z,1013.89
2022-08-23T11:46:19.261Z,1013.83
2022-08-23T11:47:19.249Z,1013.85
2022-08-23T11:48:19.191Z,1013.82
2022-08-23T11:49:19.175Z,1013.85
2022-08-23T11:50:19.175Z,1013.87
2022-08-23T11:51:19.174Z,1013.89
2022-08-23T11:52:19.163Z,1013.88
2022-08-23T11:53:19.136Z,1013.87
2022-08-23T11:54:19.169Z,1013.82
2022-08-23T11:55:19.117Z,1013.87
2022-08-23T11:56:19.114Z,1013.87
2022-08-23T11:57:19.122Z,1013.85
2022-08-23T11:58:19.102Z,1013.85
2022-08-23T11:59:19.078Z,1013.86
2022-08-23T12:00:20.944Z,1013.88
2022-08-23T12:01:19.048Z,1013.85
2022-08-23T12:02:19.190Z,1013.87
2022-08-23T12:03:19.229Z,1013.84
2022-08-23T12:04:19.047Z,1013.85
2022-08-23T12:05:19.034Z,1013.81
2022-08-23T12:06:19.052Z,1013.83
2022-08-23T12:07:18.985Z,1013.81
2022-08-23T12:08:18.985Z,1013.83